sensor_id;sensor_type;location;lat;lon;timestamp;temperature;humidity
41294;DHT22;27037;52.010;4.446;2023-06-10T00:00:41;21.70;99.90
41294;DHT22;27037;52.010;4.446;2023-06-10T00:03:07;21.60;99.90
41294;DHT22;27037;52.010;4.446;2023-06-10T00:05:34;21.60;99.90
41294;DHT22;27037;52.010;4.446;2023-06-10T00:08:01;21.50;99.90
41294;DHT22;27037;52.010;4.446;2023-06-10T00:10:33;21.40;99.90
41294;DHT22;27037;52.010;4.446;2023-06-10T00:13:00;21.40;99.90
41294;DHT22;27037;52.010;4.446;2023-06-10T00:15:26;21.40;99.90
41294;DHT22;27037;52.010;4.446;2023-06-10T00:17:52;21.30;99.90
41294;DHT22;27037;52.010;4.446;2023-06-10T00:20:18;21.30;99.90
41294;DHT22;27037;52.010;4.446;2023-06-10T00:22:44;21.30;99.90
41294;DHT22;27037;52.010;4.446;2023-06-10T00:25:10;21.20;99.90
41294;DHT22;27037;52.010;4.446;2023-06-10T00:27:36;21.20;99.90
41294;DHT22;27037;52.010;4.446;2023-06-10T00:30:03;21.20;99.90
41294;DHT22;27037;52.010;4.446;2023-06-10T00:32:35;21.10;99.90
41294;DHT22;27037;52.010;4.446;2023-06-10T00:35:01;21.10;99.90
41294;DHT22;27037;52.010;4.446;2023-06-10T00:37:27;21.10;99.90
41294;DHT22;27037;52.010;4.446;2023-06-10T00:39:54;21.00;99.90
41294;DHT22;27037;52.010;4.446;2023-06-10T00:42:19;21.00;99.90
41294;DHT22;27037;52.010;4.446;2023-06-10T00:44:46;21.00;99.90
41294;DHT22;27037;52.010;4.446;2023-06-10T00:47:12;21.00;99.90
41294;DHT22;27037;52.010;4.446;2023-06-10T00:49:39;20.90;99.90
41294;DHT22;27037;52.010;4.446;2023-06-10T00:52:05;20.90;99.90
41294;DHT22;27037;52.010;4.446;2023-06-10T00:54:32;20.80;99.90
41294;DHT22;27037;52.010;4.446;2023-06-10T00:57:00;20.80;99.90
41294;DHT22;27037;52.010;4.446;2023-06-10T00:59:31;20.70;99.90
41294;DHT22;27037;52.010;4.446;2023-06-10T01:01:57;20.70;99.90
41294;DHT22;27037;52.010;4.446;2023-06-10T01:04:23;20.60;99.90
41294;DHT22;27037;52.010;4.446;2023-06-10T01:09:42;20.60;99.90
41294;DHT22;27037;52.010;4.446;2023-06-10T01:14:58;20.50;99.90
41294;DHT22;27037;52.010;4.446;2023-06-10T01:17:24;20.50;99.90
41294;DHT22;27037;52.010;4.446;2023-06-10T01:19:56;20.40;99.90
41294;DHT22;27037;52.010;4.446;2023-06-10T01:22:26;20.40;99.90
41294;DHT22;27037;52.010;4.446;2023-06-10T01:24:58;20.40;99.90
41294;DHT22;27037;52.010;4.446;2023-06-10T01:27:30;20.30;99.90
41294;DHT22;27037;52.010;4.446;2023-06-10T01:30:12;20.30;99.90
41294;DHT22;27037;52.010;4.446;2023-06-10T01:32:45;20.30;99.90
41294;DHT22;27037;52.010;4.446;2023-06-10T01:35:11;20.20;99.90
41294;DHT22;27037;52.010;4.446;2023-06-10T01:37:39;20.20;99.90
41294;DHT22;27037;52.010;4.446;2023-06-10T01:40:06;20.20;99.90
41294;DHT22;27037;52.010;4.446;2023-06-10T01:42:33;20.20;99.90
41294;DHT22;27037;52.010;4.446;2023-06-10T01:44:59;20.10;99.90
41294;DHT22;27037;52.010;4.446;2023-06-10T01:47:24;20.10;99.90
41294;DHT22;27037;52.010;4.446;2023-06-10T01:49:50;20.10;99.90
41294;DHT22;27037;52.010;4.446;2023-06-10T01:52:16;20.00;99.90
41294;DHT22;27037;52.010;4.446;2023-06-10T01:54:42;20.00;99.90
41294;DHT22;27037;52.010;4.446;2023-06-10T01:57:07;20.00;99.90
41294;DHT22;27037;52.010;4.446;2023-06-10T01:59:33;20.00;99.90
41294;DHT22;27037;52.010;4.446;2023-06-10T02:01:59;19.90;99.90
41294;DHT22;27037;52.010;4.446;2023-06-10T02:04:24;19.90;99.90
41294;DHT22;27037;52.010;4.446;2023-06-10T02:06:50;19.90;99.90
41294;DHT22;27037;52.010;4.446;2023-06-10T02:09:16;19.80;99.90
41294;DHT22;27037;52.010;4.446;2023-06-10T02:11:43;19.80;99.90
41294;DHT22;27037;52.010;4.446;2023-06-10T02:14:09;19.80;99.90
41294;DHT22;27037;52.010;4.446;2023-06-10T02:16:34;19.70;99.90
41294;DHT22;27037;52.010;4.446;2023-06-10T02:19:00;19.70;99.90
41294;DHT22;27037;52.010;4.446;2023-06-10T02:21:26;19.70;99.90
41294;DHT22;27037;52.010;4.446;2023-06-10T02:23:52;19.70;99.90
41294;DHT22;27037;52.010;4.446;2023-06-10T02:26:18;19.70;99.90
41294;DHT22;27037;52.010;4.446;2023-06-10T02:28:44;19.60;99.90
41294;DHT22;27037;52.010;4.446;2023-06-10T02:31:09;19.60;99.90
41294;DHT22;27037;52.010;4.446;2023-06-10T02:33:35;19.50;99.90
41294;DHT22;27037;52.010;4.446;2023-06-10T02:36:00;19.50;99.90
41294;DHT22;27037;52.010;4.446;2023-06-10T02:38:26;19.50;99.90
41294;DHT22;27037;52.010;4.446;2023-06-10T02:40:52;19.50;99.90
41294;DHT22;27037;52.010;4.446;2023-06-10T02:43:17;19.40;99.90
41294;DHT22;27037;52.010;4.446;2023-06-10T02:45:43;19.40;99.90
41294;DHT22;27037;52.010;4.446;2023-06-10T02:48:08;19.40;99.90
41294;DHT22;27037;52.010;4.446;2023-06-10T02:50:34;19.30;99.90
41294;DHT22;27037;52.010;4.446;2023-06-10T02:53:00;19.30;99.90
41294;DHT22;27037;52.010;4.446;2023-06-10T02:55:26;19.30;99.90
41294;DHT22;27037;52.010;4.446;2023-06-10T02:57:52;19.30;99.90
41294;DHT22;27037;52.010;4.446;2023-06-10T03:00:20;19.30;99.90
41294;DHT22;27037;52.010;4.446;2023-06-10T03:02:46;19.30;99.90
41294;DHT22;27037;52.010;4.446;2023-06-10T03:05:12;19.20;99.90
41294;DHT22;27037;52.010;4.446;2023-06-10T03:07:38;19.20;99.90
41294;DHT22;27037;52.010;4.446;2023-06-10T03:10:05;19.20;99.90
41294;DHT22;27037;52.010;4.446;2023-06-10T03:12:31;19.10;99.90
41294;DHT22;27037;52.010;4.446;2023-06-10T03:14:57;19.10;99.90
41294;DHT22;27037;52.010;4.446;2023-06-10T03:17:22;19.10;99.90
41294;DHT22;27037;52.010;4.446;2023-06-10T03:19:48;19.10;99.90
41294;DHT22;27037;52.010;4.446;2023-06-10T03:22:15;19.00;99.90
41294;DHT22;27037;52.010;4.446;2023-06-10T03:24:41;19.00;99.90
41294;DHT22;27037;52.010;4.446;2023-06-10T03:27:12;19.00;99.90
41294;DHT22;27037;52.010;4.446;2023-06-10T03:29:38;18.90;99.90
41294;DHT22;27037;52.010;4.446;2023-06-10T03:32:04;18.90;99.90
41294;DHT22;27037;52.010;4.446;2023-06-10T03:34:30;18.90;99.90
41294;DHT22;27037;52.010;4.446;2023-06-10T03:36:57;18.90;99.90
41294;DHT22;27037;52.010;4.446;2023-06-10T03:39:22;18.90;99.90
41294;DHT22;27037;52.010;4.446;2023-06-10T03:41:51;18.80;99.90
41294;DHT22;27037;52.010;4.446;2023-06-10T03:44:17;18.80;99.90
41294;DHT22;27037;52.010;4.446;2023-06-10T03:46:42;18.80;99.90
41294;DHT22;27037;52.010;4.446;2023-06-10T03:49:08;18.80;99.90
41294;DHT22;27037;52.010;4.446;2023-06-10T03:51:35;18.80;99.90
41294;DHT22;27037;52.010;4.446;2023-06-10T03:54:01;18.80;99.90
41294;DHT22;27037;52.010;4.446;2023-06-10T03:56:26;18.80;99.90
41294;DHT22;27037;52.010;4.446;2023-06-10T03:58:52;18.70;99.90
41294;DHT22;27037;52.010;4.446;2023-06-10T04:01:17;18.70;99.90
41294;DHT22;27037;52.010;4.446;2023-06-10T04:03:46;18.70;99.90
41294;DHT22;27037;52.010;4.446;2023-06-10T04:06:14;18.70;99.90
41294;DHT22;27037;52.010;4.446;2023-06-10T04:08:41;18.70;99.90
41294;DHT22;27037;52.010;4.446;2023-06-10T04:11:06;18.70;99.90
41294;DHT22;27037;52.010;4.446;2023-06-10T04:13:32;18.70;99.90
41294;DHT22;27037;52.010;4.446;2023-06-10T04:15:58;18.60;99.90
41294;DHT22;27037;52.010;4.446;2023-06-10T04:18:23;18.60;99.90
41294;DHT22;27037;52.010;4.446;2023-06-10T04:20:49;18.60;99.90
41294;DHT22;27037;52.010;4.446;2023-06-10T04:23:14;18.60;99.90
41294;DHT22;27037;52.010;4.446;2023-06-10T04:25:40;18.70;99.90
41294;DHT22;27037;52.010;4.446;2023-06-10T04:28:06;18.70;99.90
41294;DHT22;27037;52.010;4.446;2023-06-10T04:30:31;18.60;99.90
41294;DHT22;27037;52.010;4.446;2023-06-10T04:32:57;18.60;99.90
41294;DHT22;27037;52.010;4.446;2023-06-10T04:35:23;18.60;99.90
41294;DHT22;27037;52.010;4.446;2023-06-10T04:37:48;18.60;99.90
41294;DHT22;27037;52.010;4.446;2023-06-10T04:40:14;18.70;99.90
41294;DHT22;27037;52.010;4.446;2023-06-10T04:42:41;18.70;99.90
41294;DHT22;27037;52.010;4.446;2023-06-10T04:45:07;18.70;99.90
41294;DHT22;27037;52.010;4.446;2023-06-10T04:47:33;18.70;99.90
41294;DHT22;27037;52.010;4.446;2023-06-10T04:50:00;18.70;99.90
41294;DHT22;27037;52.010;4.446;2023-06-10T04:52:26;18.80;99.90
41294;DHT22;27037;52.010;4.446;2023-06-10T04:54:53;18.80;99.90
41294;DHT22;27037;52.010;4.446;2023-06-10T04:57:19;18.80;99.90
41294;DHT22;27037;52.010;4.446;2023-06-10T04:59:46;18.80;99.90
41294;DHT22;27037;52.010;4.446;2023-06-10T05:02:11;18.90;99.90
41294;DHT22;27037;52.010;4.446;2023-06-10T05:04:37;18.90;99.90
41294;DHT22;27037;52.010;4.446;2023-06-10T05:07:03;18.90;99.90
41294;DHT22;27037;52.010;4.446;2023-06-10T05:09:29;19.00;99.90
41294;DHT22;27037;52.010;4.446;2023-06-10T05:11:55;19.00;99.90
41294;DHT22;27037;52.010;4.446;2023-06-10T05:14:21;19.00;99.90
41294;DHT22;27037;52.010;4.446;2023-06-10T05:16:49;19.00;99.90
41294;DHT22;27037;52.010;4.446;2023-06-10T05:19:15;19.00;99.90
41294;DHT22;27037;52.010;4.446;2023-06-10T05:21:45;19.10;99.90
41294;DHT22;27037;52.010;4.446;2023-06-10T05:24:10;19.10;99.90
41294;DHT22;27037;52.010;4.446;2023-06-10T05:26:36;19.10;99.90
41294;DHT22;27037;52.010;4.446;2023-06-10T05:29:04;19.10;99.90
41294;DHT22;27037;52.010;4.446;2023-06-10T05:31:30;19.20;99.90
41294;DHT22;27037;52.010;4.446;2023-06-10T05:33:55;19.20;99.90
41294;DHT22;27037;52.010;4.446;2023-06-10T05:36:21;19.30;99.90
41294;DHT22;27037;52.010;4.446;2023-06-10T05:38:47;19.30;99.90
41294;DHT22;27037;52.010;4.446;2023-06-10T05:41:12;19.40;99.90
41294;DHT22;27037;52.010;4.446;2023-06-10T05:43:38;19.50;99.90
41294;DHT22;27037;52.010;4.446;2023-06-10T05:46:04;19.50;99.90
41294;DHT22;27037;52.010;4.446;2023-06-10T05:48:29;19.60;99.90
41294;DHT22;27037;52.010;4.446;2023-06-10T05:50:55;19.60;99.90
41294;DHT22;27037;52.010;4.446;2023-06-10T05:53:21;19.60;99.90
41294;DHT22;27037;52.010;4.446;2023-06-10T05:55:46;19.70;99.90
41294;DHT22;27037;52.010;4.446;2023-06-10T05:58:13;19.80;99.90
41294;DHT22;27037;52.010;4.446;2023-06-10T06:00:39;19.80;99.90
41294;DHT22;27037;52.010;4.446;2023-06-10T06:03:08;19.90;99.90
41294;DHT22;27037;52.010;4.446;2023-06-10T06:05:34;20.00;99.90
41294;DHT22;27037;52.010;4.446;2023-06-10T06:08:02;20.00;99.90
41294;DHT22;27037;52.010;4.446;2023-06-10T06:10:27;20.10;99.90
41294;DHT22;27037;52.010;4.446;2023-06-10T06:12:53;20.20;99.90
41294;DHT22;27037;52.010;4.446;2023-06-10T06:15:18;20.30;99.90
41294;DHT22;27037;52.010;4.446;2023-06-10T06:17:44;20.40;99.90
41294;DHT22;27037;52.010;4.446;2023-06-10T06:20:10;20.40;99.90
41294;DHT22;27037;52.010;4.446;2023-06-10T06:22:36;20.50;99.90
41294;DHT22;27037;52.010;4.446;2023-06-10T06:25:01;20.60;99.90
41294;DHT22;27037;52.010;4.446;2023-06-10T06:27:27;20.70;99.90
41294;DHT22;27037;52.010;4.446;2023-06-10T06:29:53;20.80;99.90
41294;DHT22;27037;52.010;4.446;2023-06-10T06:32:19;20.90;99.90
41294;DHT22;27037;52.010;4.446;2023-06-10T06:34:45;21.00;99.90
41294;DHT22;27037;52.010;4.446;2023-06-10T06:37:10;21.10;99.90
41294;DHT22;27037;52.010;4.446;2023-06-10T06:39:36;21.20;99.90
41294;DHT22;27037;52.010;4.446;2023-06-10T06:42:02;21.30;99.90
41294;DHT22;27037;52.010;4.446;2023-06-10T06:44:29;21.40;99.90
41294;DHT22;27037;52.010;4.446;2023-06-10T06:46:54;21.50;99.90
41294;DHT22;27037;52.010;4.446;2023-06-10T06:49:20;21.60;99.60
41294;DHT22;27037;52.010;4.446;2023-06-10T06:51:45;21.70;99.10
41294;DHT22;27037;52.010;4.446;2023-06-10T06:54:11;21.80;98.90
41294;DHT22;27037;52.010;4.446;2023-06-10T06:56:37;21.90;98.50
41294;DHT22;27037;52.010;4.446;2023-06-10T06:59:03;22.10;98.00
41294;DHT22;27037;52.010;4.446;2023-06-10T07:01:30;22.20;97.90
41294;DHT22;27037;52.010;4.446;2023-06-10T07:03:55;22.30;97.50
41294;DHT22;27037;52.010;4.446;2023-06-10T07:06:21;22.50;97.00
41294;DHT22;27037;52.010;4.446;2023-06-10T07:08:46;22.60;96.60
41294;DHT22;27037;52.010;4.446;2023-06-10T07:11:12;22.70;96.30
41294;DHT22;27037;52.010;4.446;2023-06-10T07:13:38;22.80;96.00
41294;DHT22;27037;52.010;4.446;2023-06-10T07:16:03;23.00;95.60
41294;DHT22;27037;52.010;4.446;2023-06-10T07:18:29;23.10;95.20
41294;DHT22;27037;52.010;4.446;2023-06-10T07:20:55;23.20;94.70
41294;DHT22;27037;52.010;4.446;2023-06-10T07:23:20;23.30;94.20
41294;DHT22;27037;52.010;4.446;2023-06-10T07:25:46;23.50;94.00
41294;DHT22;27037;52.010;4.446;2023-06-10T07:28:13;23.60;93.60
41294;DHT22;27037;52.010;4.446;2023-06-10T07:30:38;23.80;93.40
41294;DHT22;27037;52.010;4.446;2023-06-10T07:33:04;24.00;92.90
41294;DHT22;27037;52.010;4.446;2023-06-10T07:35:34;24.20;92.30
41294;DHT22;27037;52.010;4.446;2023-06-10T07:37:59;24.40;91.50
41294;DHT22;27037;52.010;4.446;2023-06-10T07:40:25;24.50;90.80
41294;DHT22;27037;52.010;4.446;2023-06-10T07:42:51;24.70;90.00
41294;DHT22;27037;52.010;4.446;2023-06-10T07:45:18;24.80;88.90
41294;DHT22;27037;52.010;4.446;2023-06-10T07:47:43;25.00;88.00
41294;DHT22;27037;52.010;4.446;2023-06-10T07:50:09;25.20;86.00
41294;DHT22;27037;52.010;4.446;2023-06-10T07:52:35;25.30;84.80
41294;DHT22;27037;52.010;4.446;2023-06-10T07:55:01;25.40;83.70
41294;DHT22;27037;52.010;4.446;2023-06-10T07:57:26;25.60;82.70
41294;DHT22;27037;52.010;4.446;2023-06-10T07:59:52;25.70;82.00
41294;DHT22;27037;52.010;4.446;2023-06-10T08:02:17;25.80;81.60
41294;DHT22;27037;52.010;4.446;2023-06-10T08:04:43;26.00;81.30
41294;DHT22;27037;52.010;4.446;2023-06-10T08:07:09;26.20;80.60
41294;DHT22;27037;52.010;4.446;2023-06-10T08:09:34;26.40;79.70
41294;DHT22;27037;52.010;4.446;2023-06-10T08:12:00;26.50;78.80
41294;DHT22;27037;52.010;4.446;2023-06-10T08:14:26;26.70;77.90
41294;DHT22;27037;52.010;4.446;2023-06-10T08:16:51;26.80;76.50
41294;DHT22;27037;52.010;4.446;2023-06-10T08:19:17;26.90;75.90
41294;DHT22;27037;52.010;4.446;2023-06-10T08:21:42;27.00;74.80
41294;DHT22;27037;52.010;4.446;2023-06-10T08:24:09;27.10;74.30
41294;DHT22;27037;52.010;4.446;2023-06-10T08:26:35;27.20;74.00
41294;DHT22;27037;52.010;4.446;2023-06-10T08:29:00;27.30;73.70
41294;DHT22;27037;52.010;4.446;2023-06-10T08:31:26;27.40;72.00
41294;DHT22;27037;52.010;4.446;2023-06-10T08:33:52;27.50;71.20
41294;DHT22;27037;52.010;4.446;2023-06-10T08:36:17;27.70;70.80
41294;DHT22;27037;52.010;4.446;2023-06-10T08:38:43;27.80;69.90
41294;DHT22;27037;52.010;4.446;2023-06-10T08:41:09;28.00;69.00
41294;DHT22;27037;52.010;4.446;2023-06-10T08:44:17;28.10;68.10
41294;DHT22;27037;52.010;4.446;2023-06-10T08:46:47;28.30;66.40
41294;DHT22;27037;52.010;4.446;2023-06-10T08:49:18;28.30;66.70
41294;DHT22;27037;52.010;4.446;2023-06-10T08:51:51;28.40;66.50
41294;DHT22;27037;52.010;4.446;2023-06-10T08:54:28;28.50;65.80
41294;DHT22;27037;52.010;4.446;2023-06-10T08:56:55;28.70;64.70
41294;DHT22;27037;52.010;4.446;2023-06-10T08:59:23;28.70;63.70
41294;DHT22;27037;52.010;4.446;2023-06-10T09:01:50;28.90;62.90
41294;DHT22;27037;52.010;4.446;2023-06-10T09:04:17;29.00;62.20
41294;DHT22;27037;52.010;4.446;2023-06-10T09:06:44;29.20;62.10
41294;DHT22;27037;52.010;4.446;2023-06-10T09:09:10;29.40;61.70
41294;DHT22;27037;52.010;4.446;2023-06-10T09:11:38;29.40;60.90
41294;DHT22;27037;52.010;4.446;2023-06-10T09:14:03;29.60;60.40
41294;DHT22;27037;52.010;4.446;2023-06-10T09:16:29;29.60;59.50
41294;DHT22;27037;52.010;4.446;2023-06-10T09:18:55;29.70;59.00
41294;DHT22;27037;52.010;4.446;2023-06-10T09:21:24;29.80;58.30
41294;DHT22;27037;52.010;4.446;2023-06-10T09:23:50;29.80;58.40
41294;DHT22;27037;52.010;4.446;2023-06-10T09:26:16;29.90;58.30
41294;DHT22;27037;52.010;4.446;2023-06-10T09:28:48;30.00;58.30
41294;DHT22;27037;52.010;4.446;2023-06-10T09:31:14;30.10;57.40
41294;DHT22;27037;52.010;4.446;2023-06-10T09:33:44;30.10;57.30
41294;DHT22;27037;52.010;4.446;2023-06-10T09:36:10;30.20;57.60
41294;DHT22;27037;52.010;4.446;2023-06-10T09:38:36;30.30;56.40
41294;DHT22;27037;52.010;4.446;2023-06-10T09:41:03;30.40;55.70
41294;DHT22;27037;52.010;4.446;2023-06-10T09:43:45;30.40;55.60
41294;DHT22;27037;52.010;4.446;2023-06-10T09:46:18;30.50;55.10
41294;DHT22;27037;52.010;4.446;2023-06-10T09:48:45;30.60;55.20
41294;DHT22;27037;52.010;4.446;2023-06-10T09:51:12;30.70;55.40
41294;DHT22;27037;52.010;4.446;2023-06-10T09:53:38;30.90;55.40
41294;DHT22;27037;52.010;4.446;2023-06-10T09:56:04;31.10;55.00
41294;DHT22;27037;52.010;4.446;2023-06-10T09:58:37;31.20;54.10
41294;DHT22;27037;52.010;4.446;2023-06-10T10:01:10;31.20;53.60
41294;DHT22;27037;52.010;4.446;2023-06-10T10:03:52;31.10;53.30
41294;DHT22;27037;52.010;4.446;2023-06-10T10:06:19;31.10;53.30
41294;DHT22;27037;52.010;4.446;2023-06-10T10:08:46;31.20;53.30
41294;DHT22;27037;52.010;4.446;2023-06-10T10:11:13;31.30;53.50
41294;DHT22;27037;52.010;4.446;2023-06-10T10:13:39;31.40;52.60
41294;DHT22;27037;52.010;4.446;2023-06-10T10:16:17;31.40;52.20
41294;DHT22;27037;52.010;4.446;2023-06-10T10:18:49;31.20;51.70
41294;DHT22;27037;52.010;4.446;2023-06-10T10:21:21;31.10;51.70
41294;DHT22;27037;52.010;4.446;2023-06-10T10:26:31;31.20;51.60
41294;DHT22;27037;52.010;4.446;2023-06-10T10:31:27;31.30;51.80
41294;DHT22;27037;52.010;4.446;2023-06-10T10:33:58;31.40;51.80
41294;DHT22;27037;52.010;4.446;2023-06-10T10:36:25;31.50;52.20
41294;DHT22;27037;52.010;4.446;2023-06-10T10:38:51;31.70;51.90
41294;DHT22;27037;52.010;4.446;2023-06-10T10:41:18;31.70;52.40
41294;DHT22;27037;52.010;4.446;2023-06-10T10:43:45;31.80;52.40
41294;DHT22;27037;52.010;4.446;2023-06-10T10:46:14;31.90;52.30
41294;DHT22;27037;52.010;4.446;2023-06-10T10:48:41;31.90;52.30
41294;DHT22;27037;52.010;4.446;2023-06-10T10:51:08;31.90;51.90
41294;DHT22;27037;52.010;4.446;2023-06-10T10:53:34;32.00;51.70
41294;DHT22;27037;52.010;4.446;2023-06-10T10:56:04;32.10;52.10
41294;DHT22;27037;52.010;4.446;2023-06-10T10:58:30;32.10;52.10
41294;DHT22;27037;52.010;4.446;2023-06-10T11:00:55;32.10;51.90
41294;DHT22;27037;52.010;4.446;2023-06-10T11:03:21;32.10;52.40
41294;DHT22;27037;52.010;4.446;2023-06-10T11:05:48;32.10;52.10
41294;DHT22;27037;52.010;4.446;2023-06-10T11:10:58;32.10;51.70
41294;DHT22;27037;52.010;4.446;2023-06-10T11:13:25;32.20;51.70
41294;DHT22;27037;52.010;4.446;2023-06-10T11:15:52;32.30;52.50
41294;DHT22;27037;52.010;4.446;2023-06-10T11:18:40;32.40;51.80
41294;DHT22;27037;52.010;4.446;2023-06-10T11:21:06;32.50;51.70
41294;DHT22;27037;52.010;4.446;2023-06-10T11:23:34;32.70;50.80
41294;DHT22;27037;52.010;4.446;2023-06-10T11:31:32;32.90;48.70
41294;DHT22;27037;52.010;4.446;2023-06-10T11:34:03;33.00;48.80
41294;DHT22;27037;52.010;4.446;2023-06-10T11:36:30;33.00;48.90
41294;DHT22;27037;52.010;4.446;2023-06-10T11:38:58;33.10;49.40
41294;DHT22;27037;52.010;4.446;2023-06-10T11:41:25;33.20;49.40
41294;DHT22;27037;52.010;4.446;2023-06-10T11:43:55;33.30;48.90
41294;DHT22;27037;52.010;4.446;2023-06-10T11:46:25;33.50;48.00
41294;DHT22;27037;52.010;4.446;2023-06-10T11:48:58;33.50;47.10
41294;DHT22;27037;52.010;4.446;2023-06-10T11:51:28;33.50;46.40
41294;DHT22;27037;52.010;4.446;2023-06-10T11:53:54;33.60;45.20
41294;DHT22;27037;52.010;4.446;2023-06-10T11:56:28;33.50;44.90
41294;DHT22;27037;52.010;4.446;2023-06-10T11:58:55;33.30;44.80
41294;DHT22;27037;52.010;4.446;2023-06-10T12:01:24;33.30;45.20
41294;DHT22;27037;52.010;4.446;2023-06-10T12:04:07;33.40;44.90
41294;DHT22;27037;52.010;4.446;2023-06-10T12:11:42;33.60;44.10
41294;DHT22;27037;52.010;4.446;2023-06-10T12:14:07;33.60;44.20
41294;DHT22;27037;52.010;4.446;2023-06-10T12:16:33;33.70;44.10
41294;DHT22;27037;52.010;4.446;2023-06-10T12:19:03;33.70;44.20
41294;DHT22;27037;52.010;4.446;2023-06-10T12:21:29;33.80;44.30
41294;DHT22;27037;52.010;4.446;2023-06-10T12:24:08;33.80;44.10
41294;DHT22;27037;52.010;4.446;2023-06-10T12:26:44;33.90;44.00
41294;DHT22;27037;52.010;4.446;2023-06-10T12:31:59;33.80;43.20
41294;DHT22;27037;52.010;4.446;2023-06-10T12:34:39;33.90;42.80
41294;DHT22;27037;52.010;4.446;2023-06-10T12:37:12;34.00;43.90
41294;DHT22;27037;52.010;4.446;2023-06-10T12:39:39;34.00;42.60
41294;DHT22;27037;52.010;4.446;2023-06-10T12:42:05;33.90;42.60
41294;DHT22;27037;52.010;4.446;2023-06-10T12:44:38;33.80;42.70
41294;DHT22;27037;52.010;4.446;2023-06-10T12:47:10;33.80;42.90
41294;DHT22;27037;52.010;4.446;2023-06-10T12:49:38;33.80;42.50
41294;DHT22;27037;52.010;4.446;2023-06-10T12:52:04;33.80;42.30
41294;DHT22;27037;52.010;4.446;2023-06-10T12:54:30;33.80;42.50
41294;DHT22;27037;52.010;4.446;2023-06-10T12:56:56;33.80;42.80
41294;DHT22;27037;52.010;4.446;2023-06-10T12:59:22;33.80;42.80
41294;DHT22;27037;52.010;4.446;2023-06-10T13:01:53;33.80;42.60
41294;DHT22;27037;52.010;4.446;2023-06-10T13:04:19;33.80;42.50
41294;DHT22;27037;52.010;4.446;2023-06-10T13:06:46;33.90;42.60
41294;DHT22;27037;52.010;4.446;2023-06-10T13:09:13;34.00;42.70
41294;DHT22;27037;52.010;4.446;2023-06-10T13:11:39;34.10;42.60
41294;DHT22;27037;52.010;4.446;2023-06-10T13:14:05;34.10;42.30
41294;DHT22;27037;52.010;4.446;2023-06-10T13:16:32;34.20;42.40
41294;DHT22;27037;52.010;4.446;2023-06-10T13:18:58;34.20;41.70
41294;DHT22;27037;52.010;4.446;2023-06-10T13:21:24;34.20;41.30
41294;DHT22;27037;52.010;4.446;2023-06-10T13:23:50;34.20;41.30
41294;DHT22;27037;52.010;4.446;2023-06-10T13:26:16;34.30;41.00
41294;DHT22;27037;52.010;4.446;2023-06-10T13:28:43;34.30;40.80
41294;DHT22;27037;52.010;4.446;2023-06-10T13:31:08;34.40;40.80
41294;DHT22;27037;52.010;4.446;2023-06-10T13:33:34;34.40;40.70
41294;DHT22;27037;52.010;4.446;2023-06-10T13:36:00;34.40;40.60
41294;DHT22;27037;52.010;4.446;2023-06-10T13:38:25;34.50;40.50
41294;DHT22;27037;52.010;4.446;2023-06-10T13:40:51;34.40;40.50
41294;DHT22;27037;52.010;4.446;2023-06-10T13:43:16;34.40;40.70
41294;DHT22;27037;52.010;4.446;2023-06-10T13:45:42;34.30;40.90
41294;DHT22;27037;52.010;4.446;2023-06-10T13:48:08;34.40;41.10
41294;DHT22;27037;52.010;4.446;2023-06-10T13:50:33;34.40;41.00
41294;DHT22;27037;52.010;4.446;2023-06-10T13:52:59;34.40;40.80
41294;DHT22;27037;52.010;4.446;2023-06-10T13:55:25;34.30;40.50
41294;DHT22;27037;52.010;4.446;2023-06-10T13:57:51;34.40;40.60
41294;DHT22;27037;52.010;4.446;2023-06-10T14:00:17;34.40;40.60
41294;DHT22;27037;52.010;4.446;2023-06-10T14:02:42;34.30;40.50
41294;DHT22;27037;52.010;4.446;2023-06-10T14:05:08;34.30;40.70
41294;DHT22;27037;52.010;4.446;2023-06-10T14:07:34;34.30;40.70
41294;DHT22;27037;52.010;4.446;2023-06-10T14:10:00;34.30;40.20
41294;DHT22;27037;52.010;4.446;2023-06-10T14:12:26;34.30;40.10
41294;DHT22;27037;52.010;4.446;2023-06-10T14:14:51;34.40;40.20
41294;DHT22;27037;52.010;4.446;2023-06-10T14:17:17;34.40;39.90
41294;DHT22;27037;52.010;4.446;2023-06-10T14:19:42;34.30;39.80
41294;DHT22;27037;52.010;4.446;2023-06-10T14:22:08;34.10;39.90
41294;DHT22;27037;52.010;4.446;2023-06-10T14:24:34;34.20;40.20
41294;DHT22;27037;52.010;4.446;2023-06-10T14:27:01;34.20;40.20
41294;DHT22;27037;52.010;4.446;2023-06-10T14:29:27;34.20;40.50
41294;DHT22;27037;52.010;4.446;2023-06-10T14:31:54;34.30;40.60
41294;DHT22;27037;52.010;4.446;2023-06-10T14:34:20;34.30;40.70
41294;DHT22;27037;52.010;4.446;2023-06-10T14:36:47;34.40;41.00
41294;DHT22;27037;52.010;4.446;2023-06-10T14:39:12;34.40;40.60
41294;DHT22;27037;52.010;4.446;2023-06-10T14:41:38;34.40;40.90
41294;DHT22;27037;52.010;4.446;2023-06-10T14:44:03;34.40;41.00
41294;DHT22;27037;52.010;4.446;2023-06-10T14:46:29;34.40;41.30
41294;DHT22;27037;52.010;4.446;2023-06-10T14:48:54;34.40;41.70
41294;DHT22;27037;52.010;4.446;2023-06-10T14:51:20;34.40;41.10
41294;DHT22;27037;52.010;4.446;2023-06-10T14:53:46;34.50;40.60
41294;DHT22;27037;52.010;4.446;2023-06-10T14:56:13;34.40;40.20
41294;DHT22;27037;52.010;4.446;2023-06-10T14:58:39;34.50;40.30
41294;DHT22;27037;52.010;4.446;2023-06-10T15:01:04;34.50;40.80
41294;DHT22;27037;52.010;4.446;2023-06-10T15:03:30;34.50;41.30
41294;DHT22;27037;52.010;4.446;2023-06-10T15:05:56;34.50;41.50
41294;DHT22;27037;52.010;4.446;2023-06-10T15:08:21;34.40;42.00
41294;DHT22;27037;52.010;4.446;2023-06-10T15:10:47;34.40;42.20
41294;DHT22;27037;52.010;4.446;2023-06-10T15:13:13;34.40;42.20
41294;DHT22;27037;52.010;4.446;2023-06-10T15:15:39;34.40;42.20
41294;DHT22;27037;52.010;4.446;2023-06-10T15:18:05;34.30;42.30
41294;DHT22;27037;52.010;4.446;2023-06-10T15:20:30;34.30;42.10
41294;DHT22;27037;52.010;4.446;2023-06-10T15:22:56;34.20;42.30
41294;DHT22;27037;52.010;4.446;2023-06-10T15:25:22;34.20;42.20
41294;DHT22;27037;52.010;4.446;2023-06-10T15:27:47;34.10;42.20
41294;DHT22;27037;52.010;4.446;2023-06-10T15:30:13;34.00;42.30
41294;DHT22;27037;52.010;4.446;2023-06-10T15:32:39;34.00;42.60
41294;DHT22;27037;52.010;4.446;2023-06-10T15:35:05;34.00;42.20
41294;DHT22;27037;52.010;4.446;2023-06-10T15:37:31;34.00;42.50
41294;DHT22;27037;52.010;4.446;2023-06-10T15:39:56;33.90;42.60
41294;DHT22;27037;52.010;4.446;2023-06-10T15:42:22;33.90;42.70
41294;DHT22;27037;52.010;4.446;2023-06-10T15:44:49;33.70;42.70
41294;DHT22;27037;52.010;4.446;2023-06-10T15:47:14;33.70;43.10
41294;DHT22;27037;52.010;4.446;2023-06-10T15:49:40;33.60;43.30
41294;DHT22;27037;52.010;4.446;2023-06-10T15:52:06;33.60;43.10
41294;DHT22;27037;52.010;4.446;2023-06-10T15:54:32;33.60;42.90